TimeEST,TemperatureF,Dew PointF,Humidity,Sea Level PressureIn,VisibilityMPH,Wind Direction,Wind SpeedMPH,Gust SpeedMPH,PrecipitationIn,Events,Conditions,WindDirDegrees,DateUTC
12:25 AM,71.6,69.8,94,29.96,10.0,South,11.5,-,N/A,Rain,Light Rain,170,2012-12-29 05:25:00
12:44 AM,71.6,69.8,94,29.95,10.0,SSE,11.5,-,N/A,,Mostly Cloudy,160,2012-12-29 05:44:00
12:55 AM,70.7,68.9,94,29.95,10.0,SSE,11.5,-,0.01,,Mostly Cloudy,160,2012-12-29 05:55:00
1:55 AM,70.7,68.5,93,29.93,10.0,SSE,11.5,-,N/A,,Overcast,160,2012-12-29 06:55:00
2:55 AM,70.7,68.4,92,29.93,10.0,South,9.2,-,N/A,,Overcast,180,2012-12-29 07:55:00
3:36 AM,71.6,68.0,88,29.91,10.0,South,13.8,-,N/A,,Light Drizzle,180,2012-12-29 08:36:00
3:55 AM,70.9,68.7,93,29.90,10.0,South,11.5,-,0.01,,Light Drizzle,170,2012-12-29 08:55:00
3:57 AM,71.6,68.0,88,29.90,10.0,South,12.7,-,N/A,,Mostly Cloudy,180,2012-12-29 08:57:00
4:55 AM,70.3,68.2,93,29.89,10.0,South,15.0,-,0.00,,Partly Cloudy,180,2012-12-29 09:55:00
5:55 AM,70.5,68.7,94,29.91,10.0,South,18.4,-,N/A,,Scattered Clouds,190,2012-12-29 10:55:00
6:10 AM,69.8,68.0,94,29.94,10.0,SSW,17.3,-,N/A,,Mostly Cloudy,200,2012-12-29 11:10:00
6:31 AM,71.6,68.0,88,29.95,10.0,SSW,18.4,-,N/A,,Overcast,200,2012-12-29 11:31:00
6:55 AM,71.2,68.9,92,29.96,10.0,SSW,19.6,-,N/A,,Overcast,200,2012-12-29 11:55:00
7:43 AM,71.6,68.0,88,29.96,10.0,SSW,17.3,-,N/A,,Overcast,200,2012-12-29 12:43:00
7:55 AM,71.4,69.1,92,29.96,10.0,SSW,20.7,24.2,N/A,,Overcast,200,2012-12-29 12:55:00
8:55 AM,72.1,69.8,92,29.98,10.0,SSW,15.0,-,N/A,,Mostly Cloudy,200,2012-12-29 13:55:00
9:01 AM,73.4,69.8,88,29.98,10.0,SSW,13.8,-,N/A,,Mostly Cloudy,200,2012-12-29 14:01:00
9:05 AM,73.4,69.8,88,29.98,10.0,SSW,13.8,-,N/A,,Scattered Clouds,200,2012-12-29 14:05:00
9:34 AM,73.4,69.8,88,29.98,10.0,SSW,17.3,-,N/A,,Mostly Cloudy,200,2012-12-29 14:34:00
9:55 AM,74.1,69.8,86,29.98,10.0,SSW,17.3,-,N/A,,Scattered Clouds,200,2012-12-29 14:55:00
10:55 AM,75.9,69.3,80,29.97,10.0,SSW,20.7,-,N/A,,Scattered Clouds,210,2012-12-29 15:55:00
10:58 AM,77.0,69.8,78,29.97,10.0,SSW,16.1,26.5,N/A,,Light Drizzle,210,2012-12-29 15:58:00
11:02 AM,77.0,69.8,78,29.97,10.0,SSW,21.9,-,N/A,,Light Drizzle,210,2012-12-29 16:02:00
11:07 AM,77.0,69.8,78,29.96,10.0,SSW,19.6,-,N/A,,Mostly Cloudy,210,2012-12-29 16:07:00
11:14 AM,77.0,69.8,78,29.96,10.0,SW,19.6,-,N/A,,Scattered Clouds,220,2012-12-29 16:14:00
11:55 AM,78.4,69.6,74,29.94,10.0,SW,19.6,28.8,0.00,,Scattered Clouds,220,2012-12-29 16:55:00
12:55 PM,78.6,69.8,74,29.91,10.0,SW,20.7,27.6,N/A,,Scattered Clouds,230,2012-12-29 17:55:00
1:17 PM,77.0,69.8,78,29.91,10.0,WSW,20.7,-,N/A,,Mostly Cloudy,240,2012-12-29 18:17:00
1:21 PM,77.0,69.8,78,29.91,10.0,WSW,21.9,-,N/A,,Mostly Cloudy,240,2012-12-29 18:21:00
1:25 PM,77.0,69.8,78,29.91,10.0,SW,19.6,-,N/A,,Mostly Cloudy,230,2012-12-29 18:25:00
1:29 PM,77.0,69.8,78,29.91,10.0,SW,20.7,-,N/A,,Mostly Cloudy,230,2012-12-29 18:29:00
1:55 PM,79.2,69.6,72,29.91,10.0,WSW,19.6,-,N/A,,Scattered Clouds,240,2012-12-29 18:55:00
1:57 PM,78.8,69.8,74,29.90,10.0,SW,17.3,-,N/A,,Mostly Cloudy,230,2012-12-29 18:57:00
2:13 PM,78.8,68.0,69,29.89,10.0,WSW,19.6,-,N/A,,Scattered Clouds,250,2012-12-29 19:13:00
2:39 PM,78.8,68.0,69,29.90,10.0,WSW,16.1,-,N/A,,Mostly Cloudy,250,2012-12-29 19:39:00
2:45 PM,78.8,68.0,69,29.89,10.0,WSW,17.3,-,N/A,,Scattered Clouds,250,2012-12-29 19:45:00
2:55 PM,78.6,68.4,71,29.90,10.0,WSW,18.4,-,N/A,,Mostly Cloudy,250,2012-12-29 19:55:00
3:00 PM,78.8,68.0,69,29.90,10.0,WSW,16.1,-,N/A,,Scattered Clouds,240,2012-12-29 20:00:00
3:55 PM,77.9,65.5,65,29.90,10.0,WSW,18.4,-,N/A,,Clear,250,2012-12-29 20:55:00
4:55 PM,74.7,62.6,66,29.92,10.0,West,18.4,-,N/A,,Clear,270,2012-12-29 21:55:00
5:55 PM,70.2,58.3,66,29.96,10.0,West,15.0,-,N/A,,Clear,270,2012-12-29 22:55:00
6:55 PM,66.7,55.8,68,29.99,10.0,West,16.1,-,N/A,,Clear,280,2012-12-29 23:55:00
7:55 PM,63.9,52.5,67,30.02,10.0,West,18.4,-,N/A,,Clear,280,2012-12-30 00:55:00
8:55 PM,60.8,45.0,56,30.05,10.0,West,17.3,-,N/A,,Clear,280,2012-12-30 01:55:00
9:55 PM,57.6,46.8,67,30.09,10.0,WNW,19.6,-,N/A,,Clear,290,2012-12-30 02:55:00
10:55 PM,55.8,47.8,75,30.12,10.0,West,19.6,-,N/A,,Clear,280,2012-12-30 03:55:00
11:55 PM,54.9,47.7,77,30.13,10.0,West,17.3,-,N/A,,Clear,280,2012-12-30 04:55:00